createdAt,value
2022-08-24T00:01:56.839Z,2.25
2022-08-24T00:04:25.068Z,2.30
2022-08-24T00:06:53.490Z,2.40
2022-08-24T00:09:21.727Z,2.38
2022-08-24T00:11:49.821Z,2.03
2022-08-24T00:14:19.187Z,2.17
2022-08-24T00:16:47.432Z,2.60
2022-08-24T00:19:16.307Z,2.42
2022-08-24T00:21:44.597Z,2.65
2022-08-24T00:24:12.795Z,2.60
2022-08-24T00:26:40.771Z,2.92
2022-08-24T00:29:08.893Z,2.28
2022-08-24T00:31:38.483Z,2.60
2022-08-24T00:34:06.823Z,2.78
2022-08-24T00:36:35.436Z,2.72
2022-08-24T00:39:05.154Z,2.63
2022-08-24T00:41:33.523Z,2.60
2022-08-24T00:44:04.959Z,2.85
2022-08-24T00:46:43.609Z,2.90
2022-08-24T00:49:18.482Z,2.40
2022-08-24T00:51:55.560Z,3.05
2022-08-24T00:54:27.494Z,2.65
2022-08-24T00:56:59.821Z,3.20
2022-08-24T00:59:32.672Z,2.80
2022-08-24T01:02:15.186Z,3.15
2022-08-24T01:04:50.120Z,2.47
2022-08-24T01:07:18.404Z,2.38
2022-08-24T01:09:47.060Z,2.42
2022-08-24T01:12:15.209Z,2.70
2022-08-24T01:14:43.828Z,2.75
2022-08-24T01:17:33.919Z,2.13
2022-08-24T01:20:07.284Z,2.70
2022-08-24T01:22:58.108Z,2.60
2022-08-24T01:25:29.919Z,3.05
2022-08-24T01:28:02.663Z,4.10
2022-08-24T01:30:36.252Z,4.00
2022-08-24T01:33:07.560Z,3.25
2022-08-24T01:35:37.185Z,2.53
2022-08-24T01:38:08.313Z,2.38
2022-08-24T01:40:41.261Z,2.40
2022-08-24T01:43:09.803Z,2.15
2022-08-24T01:45:38.618Z,2.13
2022-08-24T01:48:06.841Z,2.50
2022-08-24T01:50:35.040Z,3.03
2022-08-24T01:53:06.265Z,2.60
2022-08-24T01:55:37.680Z,2.35
2022-08-24T01:58:06.729Z,2.40
2022-08-24T02:00:35.292Z,2.60
2022-08-24T02:03:04.051Z,2.65
2022-08-24T02:05:32.302Z,2.58
2022-08-24T02:08:00.461Z,2.33
2022-08-24T02:10:29.629Z,2.65
2022-08-24T02:13:00.559Z,2.50
2022-08-24T02:15:31.117Z,2.55
2022-08-24T02:18:01.037Z,3.33
2022-08-24T02:22:59.068Z,3.42
2022-08-24T02:25:30.412Z,3.00
2022-08-24T02:28:01.823Z,3.38
2022-08-24T02:30:31.917Z,3.05
2022-08-24T02:33:01.021Z,2.47
2022-08-24T02:35:31.188Z,3.50
2022-08-24T02:37:59.991Z,3.40
2022-08-24T02:40:29.736Z,2.90
2022-08-24T02:42:59.431Z,3.20
2022-08-24T02:45:27.472Z,3.05
2022-08-24T02:47:55.896Z,2.72
2022-08-24T02:50:26.150Z,2.67
2022-08-24T02:52:54.329Z,2.80
2022-08-24T02:55:22.815Z,2.97
2022-08-24T03:00:24.103Z,2.80
2022-08-24T03:02:53.134Z,3.25
2022-08-24T03:05:22.787Z,2.97
2022-08-24T03:07:52.255Z,3.00
2022-08-24T03:10:21.236Z,4.03
2022-08-24T03:12:50.347Z,3.50
2022-08-24T03:15:23.572Z,3.28
2022-08-24T03:17:52.570Z,3.60
2022-08-24T03:20:23.874Z,3.35
2022-08-24T03:22:53.119Z,3.33
2022-08-24T03:25:24.841Z,3.05
2022-08-24T03:27:53.197Z,3.25
2022-08-24T03:30:23.571Z,3.50
2022-08-24T03:32:51.973Z,3.38
2022-08-24T03:35:21.976Z,3.30
2022-08-24T03:37:50.906Z,3.67
2022-08-24T03:40:22.293Z,3.42
2022-08-24T03:42:56.502Z,3.45
2022-08-24T03:45:26.135Z,3.17
2022-08-24T03:47:55.716Z,3.90
2022-08-24T03:50:25.465Z,3.10
2022-08-24T03:52:53.932Z,3.78
2022-08-24T03:55:22.590Z,3.70
2022-08-24T03:57:50.752Z,3.58
2022-08-24T04:00:19.207Z,3.70
2022-08-24T04:02:57.558Z,4.10
2022-08-24T04:05:27.735Z,3.50
2022-08-24T04:08:03.352Z,3.75
2022-08-24T04:10:31.483Z,3.53
2022-08-24T04:13:01.551Z,3.47
2022-08-24T04:15:31.733Z,3.67
2022-08-24T04:18:01.088Z,3.47
2022-08-24T04:20:29.003Z,4.00
2022-08-24T04:22:57.680Z,4.75
2022-08-24T04:25:25.779Z,3.88
2022-08-24T04:27:53.874Z,4.18
2022-08-24T04:30:24.676Z,3.60
2022-08-24T04:33:13.705Z,3.72
2022-08-24T04:35:46.017Z,3.53
2022-08-24T04:38:14.839Z,3.90
2022-08-24T04:40:49.197Z,4.05
2022-08-24T04:43:19.979Z,3.72
2022-08-24T04:48:20.333Z,3.55
2022-08-24T04:50:48.265Z,4.20
2022-08-24T04:53:17.120Z,3.85
2022-08-24T04:55:52.705Z,3.88
2022-08-24T04:58:20.964Z,4.35
2022-08-24T05:00:49.152Z,3.75
2022-08-24T05:03:17.773Z,4.00
2022-08-24T05:08:19.281Z,4.85
2022-08-24T05:10:50.589Z,4.22
2022-08-24T05:13:19.719Z,4.35
2022-08-24T05:15:49.784Z,4.32
2022-08-24T05:18:18.286Z,3.63
2022-08-24T05:20:48.998Z,3.80
2022-08-24T05:23:19.766Z,4.20
2022-08-24T05:25:48.394Z,4.45
2022-08-24T05:28:17.852Z,4.47
2022-08-24T05:30:46.004Z,4.00
2022-08-24T05:33:14.389Z,4.13
2022-08-24T05:35:43.812Z,4.20
2022-08-24T05:38:14.422Z,4.45
2022-08-24T05:40:43.311Z,4.75
2022-08-24T05:43:11.756Z,4.57
2022-08-24T05:45:42.860Z,4.75
2022-08-24T05:48:12.056Z,5.10
2022-08-24T05:50:59.201Z,4.20
2022-08-24T05:53:33.422Z,4.90
2022-08-24T05:56:04.309Z,4.47
2022-08-24T05:58:33.673Z,4.65
2022-08-24T06:01:08.523Z,4.43
2022-08-24T06:03:36.620Z,4.50
2022-08-24T06:06:08.553Z,5.05
2022-08-24T06:08:41.496Z,4.28
2022-08-24T06:11:12.145Z,5.10
2022-08-24T06:13:41.200Z,4.65
2022-08-24T06:16:21.618Z,4.63
2022-08-24T06:21:20.833Z,5.10
2022-08-24T06:23:51.373Z,4.85
2022-08-24T06:29:05.308Z,4.30
2022-08-24T06:31:39.633Z,3.83
2022-08-24T06:34:11.680Z,4.60
2022-08-24T06:36:40.218Z,4.50
2022-08-24T06:39:10.809Z,4.60
2022-08-24T06:41:44.572Z,5.03
2022-08-24T06:44:13.550Z,4.47
2022-08-24T06:46:50.080Z,4.10
2022-08-24T06:49:19.176Z,3.90
2022-08-24T06:51:50.575Z,3.95
2022-08-24T06:54:21.847Z,3.88
2022-08-24T06:56:50.672Z,3.97
2022-08-24T06:59:22.282Z,4.25
2022-08-24T07:01:50.577Z,4.18
2022-08-24T07:04:26.219Z,3.97
2022-08-24T07:07:25.717Z,3.80
2022-08-24T07:09:57.946Z,3.97
2022-08-24T07:12:27.602Z,3.40
2022-08-24T07:14:55.945Z,3.50
2022-08-24T07:17:24.270Z,3.60
2022-08-24T07:19:52.901Z,3.40
2022-08-24T07:22:41.251Z,3.22
2022-08-24T07:25:24.537Z,3.05
2022-08-24T07:27:53.652Z,3.30
2022-08-24T07:30:27.359Z,3.05
2022-08-24T07:32:58.060Z,2.78
2022-08-24T07:35:29.154Z,2.70
2022-08-24T07:38:05.982Z,3.33
2022-08-24T07:41:14.243Z,3.15
2022-08-24T07:43:40.961Z,2.97
2022-08-24T07:46:19.546Z,2.88
2022-08-24T07:48:48.571Z,3.30
2022-08-24T07:51:20.860Z,3.13
2022-08-24T07:53:53.895Z,2.92
2022-08-24T07:56:29.579Z,2.88
2022-08-24T07:59:01.005Z,3.05
2022-08-24T08:01:29.905Z,3.00
2022-08-24T08:04:09.784Z,3.78
2022-08-24T08:06:38.385Z,3.45
2022-08-24T08:09:09.725Z,3.10
2022-08-24T08:11:41.251Z,2.97
2022-08-24T08:14:20.157Z,2.92
2022-08-24T08:16:57.084Z,2.85
2022-08-24T09:13:36.509Z,2.58
2022-08-24T09:16:19.588Z,2.30
2022-08-24T09:19:16.071Z,2.30
2022-08-24T09:21:56.748Z,2.25
2022-08-24T09:24:35.726Z,2.45
2022-08-24T09:27:22.351Z,2.40
2022-08-24T09:30:10.356Z,2.45
2022-08-24T09:32:55.781Z,2.10
2022-08-24T09:35:33.063Z,2.40
2022-08-24T09:38:08.261Z,2.38
2022-08-24T09:40:44.529Z,2.63
2022-08-24T09:43:36.879Z,2.13
2022-08-24T09:46:52.354Z,2.35
2022-08-24T09:49:51.750Z,2.35
2022-08-24T09:52:55.078Z,2.35
2022-08-24T09:55:58.217Z,2.20
2022-08-24T09:58:42.739Z,2.00
2022-08-24T10:01:20.397Z,2.97
2022-08-24T10:04:00.358Z,2.20
2022-08-24T10:09:27.804Z,2.10
2022-08-24T10:12:05.651Z,2.28
2022-08-24T10:14:46.916Z,2.33
2022-08-24T10:17:21.640Z,2.35
2022-08-24T10:20:01.929Z,2.45
2022-08-24T10:22:50.292Z,2.65
2022-08-24T10:25:36.027Z,2.40
2022-08-24T10:28:32.462Z,2.60
2022-08-24T10:31:07.815Z,2.80
2022-08-24T10:33:54.728Z,2.67
2022-08-24T10:36:57.298Z,2.90
2022-08-24T10:39:52.726Z,2.53
2022-08-24T10:43:02.427Z,2.63
2022-08-24T10:45:54.787Z,2.65
2022-08-24T10:48:49.611Z,2.75
2022-08-24T10:51:36.104Z,2.28
2022-08-24T10:54:05.346Z,3.08
2022-08-24T10:56:42.574Z,2.67
2022-08-24T10:59:23.686Z,2.65
2022-08-24T11:02:12.942Z,2.80
2022-08-24T11:04:41.906Z,2.50
2022-08-24T11:07:18.525Z,2.58
2022-08-24T11:09:54.118Z,2.97
2022-08-24T11:12:29.948Z,3.20
2022-08-24T11:15:03.068Z,2.45
2022-08-24T11:17:34.762Z,2.65
2022-08-24T11:20:03.160Z,3.00
2022-08-24T11:22:36.924Z,3.17
2022-08-24T11:25:11.706Z,3.05
2022-08-24T11:27:44.389Z,3.00
2022-08-24T11:30:16.213Z,2.70
2022-08-24T11:32:47.951Z,3.00
2022-08-24T11:35:26.388Z,2.85
2022-08-24T11:37:56.801Z,3.13
2022-08-24T11:40:29.431Z,3.10
2022-08-24T11:43:19.382Z,2.92
2022-08-24T11:48:36.175Z,3.28
2022-08-24T11:51:12.100Z,3.42
2022-08-24T11:54:01.983Z,3.58
2022-08-24T11:56:39.860Z,3.22
2022-08-24T11:59:22.394Z,3.08
2022-08-24T12:01:55.001Z,3.28
2022-08-24T12:04:37.300Z,3.40
2022-08-24T12:07:16.303Z,2.97
2022-08-24T12:10:02.224Z,3.20
2022-08-24T12:12:37.155Z,3.08
2022-08-24T12:15:12.166Z,3.58
2022-08-24T12:17:46.648Z,3.33
2022-08-24T12:20:25.827Z,3.30
2022-08-24T12:22:58.086Z,3.45
2022-08-24T12:25:45.518Z,3.40
2022-08-24T12:28:16.046Z,3.67
2022-08-24T12:30:46.766Z,3.17
2022-08-24T12:33:18.861Z,3.20
2022-08-24T12:35:50.794Z,3.67
2022-08-24T12:38:25.023Z,3.42
2022-08-24T12:40:57.648Z,3.83
2022-08-24T12:43:33.364Z,3.47
2022-08-24T12:46:03.889Z,3.20
2022-08-24T12:48:39.546Z,3.13
2022-08-24T12:51:21.078Z,3.58
2022-08-24T12:54:23.711Z,3.97
2022-08-24T12:57:13.754Z,3.30
2022-08-24T12:59:46.549Z,3.20
2022-08-24T13:02:31.864Z,3.47
2022-08-24T13:05:10.248Z,3.63
2022-08-24T13:07:45.672Z,2.97
2022-08-24T13:10:38.976Z,3.10
2022-08-24T13:13:20.870Z,2.95
2022-08-24T13:16:07.170Z,3.15
2022-08-24T13:19:11.385Z,3.03
2022-08-24T13:21:46.293Z,3.03
2022-08-24T13:24:51.267Z,3.83
2022-08-24T13:27:55.127Z,3.35
2022-08-24T13:30:30.604Z,2.70
2022-08-24T13:33:04.662Z,3.33
2022-08-24T13:35:58.331Z,3.15
2022-08-24T13:38:42.716Z,2.92
2022-08-24T13:41:22.109Z,3.22
2022-08-24T13:43:59.231Z,3.70
2022-08-24T13:46:45.936Z,3.30
2022-08-24T13:49:25.465Z,3.10
2022-08-24T13:52:04.923Z,3.45
2022-08-24T13:54:43.907Z,3.40
2022-08-24T13:57:35.561Z,3.20
2022-08-24T14:00:18.046Z,3.17
2022-08-24T14:03:03.093Z,2.97
2022-08-24T14:05:38.406Z,2.88
2022-08-24T14:08:26.563Z,3.30
2022-08-24T14:11:08.330Z,3.17
2022-08-24T14:13:50.248Z,3.00
2022-08-24T14:16:53.772Z,2.75
2022-08-24T14:19:29.595Z,2.85
2022-08-24T14:22:04.343Z,2.92
2022-08-24T14:24:45.875Z,2.92
2022-08-24T14:27:37.238Z,2.90
2022-08-24T14:30:38.043Z,3.05
2022-08-24T14:33:13.207Z,2.72
2022-08-24T14:35:48.527Z,2.78
2022-08-24T14:38:48.605Z,3.17
2022-08-24T14:41:30.604Z,3.05
2022-08-24T14:44:26.493Z,2.72
2022-08-24T14:47:03.545Z,2.88
2022-08-24T14:49:38.974Z,2.83
2022-08-24T14:52:22.239Z,3.25
2022-08-24T14:55:08.100Z,3.30
2022-08-24T14:57:53.331Z,2.75
2022-08-24T15:00:25.167Z,2.85
2022-08-24T15:03:16.697Z,3.35
2022-08-24T15:06:16.011Z,3.40
2022-08-24T15:08:43.865Z,2.50
2022-08-24T15:11:14.124Z,2.60
2022-08-24T15:13:48.399Z,2.90
2022-08-24T15:16:22.487Z,2.70
2022-08-24T15:18:59.928Z,2.97
2022-08-24T15:21:37.524Z,2.97
2022-08-24T15:24:28.389Z,3.10
2022-08-24T15:27:03.436Z,2.97
2022-08-24T15:29:35.446Z,3.40
2022-08-24T15:32:08.521Z,2.63
2022-08-24T15:34:41.731Z,2.75
2022-08-24T15:37:10.083Z,2.83
2022-08-24T15:39:38.400Z,2.75
2022-08-24T15:42:13.291Z,2.95
2022-08-24T15:44:45.536Z,2.45
2022-08-24T15:47:20.909Z,2.60
2022-08-24T15:49:52.701Z,3.05
2022-08-24T15:52:48.340Z,3.33
2022-08-24T15:55:36.352Z,2.72
2022-08-24T15:58:19.818Z,2.40
2022-08-24T16:01:06.921Z,2.72
2022-08-24T16:03:48.672Z,2.53
2022-08-24T16:06:25.930Z,3.13
2022-08-24T16:09:01.048Z,2.88
2022-08-24T16:11:33.186Z,3.25
2022-08-24T16:14:03.292Z,3.00
2022-08-24T16:16:38.658Z,2.72
2022-08-24T16:19:09.245Z,2.88
2022-08-24T16:21:47.466Z,2.70
2022-08-24T16:24:28.675Z,2.72
2022-08-24T16:27:01.006Z,2.88
2022-08-24T16:29:50.362Z,2.85
2022-08-24T16:32:30.513Z,2.08
2022-08-24T16:35:16.938Z,2.87
2022-08-24T16:37:45.005Z,2.60
2022-08-24T16:40:14.134Z,2.47
2022-08-24T16:42:42.617Z,2.65
2022-08-24T16:45:17.293Z,2.70
2022-08-24T16:47:48.017Z,2.85
2022-08-24T16:50:17.546Z,2.70
2022-08-24T16:52:45.641Z,3.00
2022-08-24T16:55:14.789Z,2.38
2022-08-24T16:57:44.089Z,2.40
2022-08-24T17:00:17.160Z,2.83
2022-08-24T17:02:48.228Z,3.05
2022-08-24T17:05:17.779Z,2.90
2022-08-24T17:07:46.743Z,2.60
2022-08-24T17:10:18.311Z,3.10
2022-08-24T17:12:46.769Z,2.50
2022-08-24T17:15:16.233Z,2.50
2022-08-24T17:17:55.379Z,2.58
2022-08-24T17:20:23.877Z,2.40
2022-08-24T17:22:52.020Z,3.38
2022-08-24T17:25:20.143Z,2.90
2022-08-24T17:27:48.568Z,2.67
2022-08-24T17:30:18.523Z,3.22
2022-08-24T17:32:48.657Z,2.55
2022-08-24T17:35:17.220Z,3.15
2022-08-24T17:37:45.715Z,2.45
2022-08-24T17:40:17.001Z,2.83
2022-08-24T17:42:51.206Z,3.00
2022-08-24T17:45:20.433Z,2.83
2022-08-24T17:47:51.904Z,3.42
2022-08-24T17:50:21.672Z,2.90
2022-08-24T17:52:50.387Z,3.00
2022-08-24T17:55:27.451Z,3.22
2022-08-24T17:57:55.469Z,2.88
2022-08-24T18:00:23.639Z,2.80
2022-08-24T18:02:53.035Z,2.65
2022-08-24T18:05:21.836Z,2.88
2022-08-24T18:07:54.232Z,2.65
2022-08-24T18:10:25.386Z,2.95
2022-08-24T18:12:53.728Z,3.25
2022-08-24T18:15:22.823Z,2.67
2022-08-24T18:18:08.319Z,3.40
2022-08-24T18:20:41.416Z,2.55
2022-08-24T18:23:11.472Z,2.75
2022-08-24T18:25:43.983Z,2.30
2022-08-24T18:28:12.621Z,3.33
2022-08-24T18:30:41.696Z,2.70
2022-08-24T18:33:14.043Z,2.95
2022-08-24T18:35:42.237Z,2.80
2022-08-24T18:38:10.350Z,2.67
2022-08-24T18:40:38.946Z,2.40
2022-08-24T18:43:08.164Z,2.70
2022-08-24T18:45:36.709Z,2.73
2022-08-24T18:48:05.857Z,2.58
2022-08-24T18:50:40.091Z,2.87
2022-08-24T18:53:10.359Z,2.58
2022-08-24T18:55:38.994Z,3.30
2022-08-24T18:58:07.553Z,3.10
2022-08-24T19:00:36.162Z,3.60
2022-08-24T19:03:07.404Z,3.50
2022-08-24T19:05:38.296Z,2.80
2022-08-24T19:08:06.507Z,3.20
2022-08-24T19:10:38.096Z,2.95
2022-08-24T19:13:10.121Z,2.95
2022-08-24T19:15:40.173Z,3.13
2022-08-24T19:18:09.799Z,3.25
2022-08-24T19:20:44.704Z,3.28
2022-08-24T19:23:21.178Z,3.50
2022-08-24T19:25:49.943Z,3.55
2022-08-24T19:28:18.171Z,3.58
2022-08-24T19:30:48.873Z,3.50
2022-08-24T19:33:23.374Z,3.60
2022-08-24T19:35:53.381Z,3.92
2022-08-24T19:38:25.803Z,3.50
2022-08-24T19:40:55.556Z,3.92
2022-08-24T19:43:26.310Z,3.90
2022-08-24T19:46:05.531Z,3.53
2022-08-24T19:48:35.744Z,3.15
2022-08-24T19:51:07.655Z,3.67
2022-08-24T19:53:38.037Z,3.80
2022-08-24T19:56:06.823Z,3.55
2022-08-24T19:58:40.750Z,2.95
2022-08-24T20:01:13.432Z,3.50
2022-08-24T20:03:41.714Z,3.70
2022-08-24T20:06:11.876Z,3.53
2022-08-24T20:08:40.893Z,3.05
2022-08-24T20:11:10.023Z,3.35
2022-08-24T20:13:38.165Z,3.75
2022-08-24T20:16:10.600Z,3.90
2022-08-24T20:18:39.071Z,3.65
2022-08-24T20:21:07.797Z,3.63
2022-08-24T20:23:37.464Z,4.13
2022-08-24T20:26:08.163Z,3.70
2022-08-24T20:28:41.194Z,3.72
2022-08-24T20:31:09.907Z,3.70
2022-08-24T20:33:37.907Z,3.22
2022-08-24T20:36:06.696Z,3.33
2022-08-24T20:38:35.629Z,3.03
2022-08-24T20:41:05.239Z,3.15
2022-08-24T20:43:33.272Z,2.92
2022-08-24T20:46:01.834Z,3.03
2022-08-24T20:48:33.822Z,3.45
2022-08-24T20:51:02.918Z,4.40
2022-08-24T20:53:31.033Z,4.28
2022-08-24T20:56:02.800Z,3.45
2022-08-24T20:58:32.502Z,2.80
2022-08-24T21:01:00.739Z,3.00
2022-08-24T21:03:29.070Z,2.53
2022-08-24T21:05:57.321Z,3.28
2022-08-24T21:08:25.950Z,3.10
2022-08-24T21:10:54.954Z,3.03
2022-08-24T21:13:23.102Z,2.65
2022-08-24T21:15:52.957Z,3.55
2022-08-24T21:18:21.342Z,3.35
2022-08-24T21:21:03.337Z,3.33
2022-08-24T21:23:32.574Z,3.33
2022-08-24T21:26:01.798Z,3.40
2022-08-24T21:28:30.578Z,3.38
2022-08-24T21:31:05.112Z,3.30
2022-08-24T21:33:51.770Z,3.10
2022-08-24T21:36:21.379Z,3.17
2022-08-24T21:38:50.917Z,3.20
2022-08-24T21:41:19.406Z,3.58
2022-08-24T21:43:47.345Z,2.75
2022-08-24T21:46:17.170Z,3.13
2022-08-24T21:48:46.178Z,3.47
2022-08-24T21:51:14.314Z,3.40
2022-08-24T21:53:42.288Z,3.17
2022-08-24T21:56:10.670Z,3.20
2022-08-24T21:58:38.674Z,3.50
2022-08-24T22:01:06.973Z,2.97
2022-08-24T22:03:39.862Z,3.22
2022-08-24T22:06:09.073Z,2.75
2022-08-24T22:08:37.268Z,3.05
2022-08-24T22:11:06.377Z,3.28
2022-08-24T22:13:34.934Z,3.08
2022-08-24T22:16:03.765Z,3.13
2022-08-24T22:18:32.724Z,3.15
2022-08-24T22:21:06.693Z,2.70
2022-08-24T22:23:34.937Z,3.15
2022-08-24T22:26:02.990Z,3.08
2022-08-24T22:28:30.947Z,3.33
2022-08-24T22:30:59.401Z,3.17
2022-08-24T22:33:28.904Z,2.80
2022-08-24T22:35:56.967Z,3.15
2022-08-24T22:38:26.521Z,2.88
2022-08-24T22:40:55.853Z,2.63
2022-08-24T22:43:43.728Z,2.67
2022-08-24T22:46:12.493Z,3.10
2022-08-24T22:48:40.589Z,2.75
2022-08-24T22:51:09.486Z,3.30
2022-08-24T22:53:39.192Z,3.00
2022-08-24T22:56:15.280Z,3.03
2022-08-24T22:58:43.280Z,3.38
2022-08-24T23:01:11.293Z,2.75
2022-08-24T23:03:39.380Z,3.00
2022-08-24T23:06:07.833Z,2.70
2022-08-24T23:08:35.822Z,3.17
2022-08-24T23:11:05.307Z,2.78
2022-08-24T23:13:33.661Z,2.58
2022-08-24T23:16:02.077Z,2.65
2022-08-24T23:18:47.298Z,2.72
2022-08-24T23:21:16.279Z,2.92
2022-08-24T23:23:44.592Z,2.92
2022-08-24T23:26:16.046Z,2.70
2022-08-24T23:28:50.258Z,2.97
2022-08-24T23:31:20.730Z,3.03
2022-08-24T23:36:21.038Z,3.72
2022-08-24T23:38:49.648Z,3.50
2022-08-24T23:41:20.858Z,3.38
2022-08-24T23:43:49.055Z,3.53
2022-08-24T23:46:18.093Z,3.35
2022-08-24T23:48:55.278Z,3.70
2022-08-24T23:51:24.347Z,3.50
2022-08-24T23:53:53.255Z,2.92
2022-08-24T23:56:25.305Z,3.40
2022-08-24T23:58:54.357Z,2.90
